createdAt,value
2018-07-23T00:00:39.953Z,17.50
2018-07-23T00:03:43.044Z,17.40
2018-07-23T00:06:46.109Z,17.40
2018-07-23T00:09:49.176Z,17.40
2018-07-23T00:15:55.125Z,17.30
2018-07-23T00:18:58.205Z,17.20
2018-07-23T00:22:01.281Z,17.20
2018-07-23T00:25:04.598Z,17.20
2018-07-23T00:28:07.680Z,17.20
2018-07-23T00:31:10.745Z,17.30
2018-07-23T00:34:13.822Z,17.20
2018-07-23T00:37:16.913Z,17.20
2018-07-23T00:43:22.817Z,17.20
2018-07-23T00:46:25.913Z,17.20
2018-07-23T00:49:29.009Z,17.20
2018-07-23T00:52:32.111Z,17.10
2018-07-23T00:55:35.209Z,17.00
2018-07-23T00:58:38.304Z,17.00
2018-07-23T01:01:41.392Z,17.00
2018-07-23T01:04:44.485Z,17.00
2018-07-23T01:07:47.580Z,16.90
2018-07-23T01:10:50.669Z,16.80
2018-07-23T01:13:53.753Z,16.90
2018-07-23T01:16:56.824Z,16.80
2018-07-23T01:20:00.348Z,16.70
2018-07-23T01:23:03.436Z,16.70
2018-07-23T01:26:06.953Z,16.80
2018-07-23T01:29:10.044Z,16.90
2018-07-23T01:32:13.232Z,16.80
2018-07-23T01:35:16.310Z,16.80
2018-07-23T01:38:19.407Z,16.70
2018-07-23T01:41:22.574Z,16.70
2018-07-23T01:44:25.650Z,16.70
2018-07-23T01:47:29.561Z,16.80
2018-07-23T01:50:32.654Z,16.80
2018-07-23T01:53:35.718Z,16.80
2018-07-23T01:56:38.804Z,16.80
2018-07-23T02:02:44.769Z,16.60
2018-07-23T02:05:47.832Z,16.50
2018-07-23T02:08:50.902Z,16.50
2018-07-23T02:11:53.993Z,16.50
2018-07-23T02:14:57.089Z,16.50
2018-07-23T02:18:00.154Z,16.50
2018-07-23T02:21:03.297Z,16.50
2018-07-23T02:24:06.589Z,16.50
2018-07-23T02:27:09.674Z,16.50
2018-07-23T02:30:12.757Z,16.50
2018-07-23T02:33:15.847Z,16.50
2018-07-23T02:36:19.062Z,16.50
2018-07-23T02:39:22.146Z,16.40
2018-07-23T02:42:25.229Z,16.40
2018-07-23T02:45:28.317Z,16.40
2018-07-23T02:48:31.413Z,16.40
2018-07-23T02:51:34.510Z,16.50
2018-07-23T02:54:37.602Z,16.40
2018-07-23T02:57:40.697Z,16.30
2018-07-23T03:00:43.778Z,16.30
2018-07-23T03:03:46.955Z,16.30
2018-07-23T03:06:50.063Z,16.30
2018-07-23T03:09:53.137Z,16.20
2018-07-23T03:12:56.237Z,16.20
2018-07-23T03:15:59.321Z,16.20
2018-07-23T03:19:02.423Z,16.30
2018-07-23T03:22:05.535Z,16.30
2018-07-23T03:25:08.598Z,16.30
2018-07-23T03:28:11.701Z,16.30
2018-07-23T03:31:14.790Z,16.30
2018-07-23T03:34:17.881Z,16.30
2018-07-23T03:37:20.942Z,16.30
2018-07-23T03:40:24.045Z,16.40
2018-07-23T03:43:27.114Z,16.40
2018-07-23T03:49:33.080Z,16.60
2018-07-23T03:52:36.173Z,16.70
2018-07-23T03:55:39.260Z,16.60
2018-07-23T03:58:42.325Z,16.40
2018-07-23T04:01:45.426Z,16.20
2018-07-23T04:04:48.513Z,16.20
2018-07-23T04:07:51.605Z,16.20
2018-07-23T04:10:54.781Z,16.20
2018-07-23T04:13:57.817Z,16.40
2018-07-23T04:20:03.993Z,16.50
2018-07-23T04:26:16.593Z,16.70
2018-07-23T04:29:19.660Z,16.70
2018-07-23T04:32:22.769Z,16.80
2018-07-23T04:35:25.976Z,16.90
2018-07-23T04:38:29.054Z,17.00
2018-07-23T04:41:32.148Z,17.10
2018-07-23T04:44:35.218Z,17.30
2018-07-23T04:47:38.305Z,17.50
2018-07-23T04:50:41.495Z,17.70
2018-07-23T04:53:44.505Z,17.90
2018-07-23T04:56:47.632Z,18.20
2018-07-23T04:59:50.773Z,18.30
2018-07-23T05:02:53.885Z,18.40
2018-07-23T05:05:57.058Z,18.50
2018-07-23T05:09:00.137Z,18.60
2018-07-23T05:18:09.359Z,18.40
2018-07-23T05:21:15.486Z,18.30
2018-07-23T05:24:18.578Z,18.30
2018-07-23T05:27:21.734Z,18.30
2018-07-23T05:30:25.005Z,18.40
2018-07-23T05:33:28.097Z,18.40
2018-07-23T05:36:31.293Z,18.50
2018-07-23T05:39:34.385Z,18.60
2018-07-23T05:42:37.492Z,18.70
2018-07-23T05:45:40.570Z,18.90
2018-07-23T05:48:43.644Z,19.00
2018-07-23T05:51:46.746Z,19.20
2018-07-23T05:54:49.796Z,19.50
2018-07-23T05:57:52.872Z,19.70
2018-07-23T06:03:58.825Z,20.10
2018-07-23T06:07:02.143Z,20.20
2018-07-23T06:10:05.185Z,20.30
2018-07-23T06:13:08.352Z,20.40
2018-07-23T06:16:11.369Z,20.50
2018-07-23T06:19:14.465Z,20.70
2018-07-23T06:22:17.556Z,20.80
2018-07-23T06:25:20.654Z,21.00
2018-07-23T06:28:23.745Z,21.10
2018-07-23T06:31:26.838Z,21.20
2018-07-23T06:34:29.933Z,21.40
2018-07-23T06:37:33.243Z,21.60
2018-07-23T06:40:36.289Z,21.80
2018-07-23T06:43:39.364Z,22.00
2018-07-23T06:46:42.517Z,22.30
2018-07-23T06:49:45.544Z,22.50
2018-07-23T06:52:48.637Z,22.70
2018-07-23T06:55:51.701Z,22.80
2018-07-23T06:58:54.822Z,22.50
2018-07-23T07:01:57.897Z,22.40
2018-07-23T07:05:00.968Z,22.50
2018-07-23T07:08:04.059Z,22.60
2018-07-23T07:11:07.122Z,22.90
2018-07-23T07:14:10.198Z,22.90
2018-07-23T07:17:13.272Z,23.10
2018-07-23T07:20:16.336Z,23.30
2018-07-23T07:23:19.425Z,23.40
2018-07-23T07:29:25.336Z,23.60
2018-07-23T07:32:28.401Z,23.60
2018-07-23T07:35:31.504Z,24.60
2018-07-23T07:38:34.629Z,25.60
2018-07-23T07:41:38.030Z,25.90
2018-07-23T07:44:41.136Z,26.40
2018-07-23T07:47:44.222Z,27.80
2018-07-23T07:50:47.296Z,29.00
2018-07-23T07:53:50.470Z,30.10
2018-07-23T07:56:53.564Z,31.20
2018-07-23T07:59:56.633Z,32.30
2018-07-23T08:02:59.697Z,33.00
2018-07-23T08:06:02.778Z,33.70
2018-07-23T08:09:07.821Z,34.00
2018-07-23T08:12:10.887Z,34.40
2018-07-23T08:15:14.006Z,34.90
2018-07-23T08:18:17.074Z,35.30
2018-07-23T08:21:20.157Z,35.40
2018-07-23T08:24:23.261Z,35.00
2018-07-23T08:27:26.357Z,35.20
2018-07-23T08:30:29.437Z,35.30
2018-07-23T08:33:32.544Z,34.90
2018-07-23T08:36:35.608Z,34.40
2018-07-23T08:39:38.709Z,34.30
2018-07-23T08:42:41.761Z,34.50
2018-07-23T08:45:44.841Z,34.30
2018-07-23T08:54:53.698Z,34.20
2018-07-23T09:00:59.734Z,34.00
2018-07-23T09:04:02.786Z,33.40
2018-07-23T09:07:05.893Z,33.10
2018-07-23T09:10:08.976Z,32.90
2018-07-23T09:13:12.045Z,32.60
2018-07-23T09:16:15.125Z,32.60
2018-07-23T09:19:18.190Z,32.10
2018-07-23T09:22:21.259Z,32.00
2018-07-23T09:25:28.569Z,32.20
2018-07-23T09:28:31.661Z,32.20
2018-07-23T09:31:34.738Z,31.80
2018-07-23T09:37:47.361Z,31.10
2018-07-23T09:40:50.686Z,30.80
2018-07-23T09:43:53.756Z,30.50
2018-07-23T09:46:56.861Z,30.30
2018-07-23T09:50:00.033Z,30.00
2018-07-23T09:53:03.101Z,29.50
2018-07-23T09:56:06.653Z,29.50
2018-07-23T09:59:09.717Z,29.40
2018-07-23T10:02:12.795Z,29.00
2018-07-23T10:05:16.041Z,28.60
2018-07-23T10:08:19.119Z,28.20
2018-07-23T10:11:22.187Z,27.90
2018-07-23T10:14:25.270Z,27.70
2018-07-23T10:20:31.185Z,27.80
2018-07-23T10:23:34.241Z,28.20
2018-07-23T10:26:37.311Z,28.00
2018-07-23T10:29:40.387Z,28.10
2018-07-23T10:32:43.433Z,28.10
2018-07-23T10:35:46.572Z,28.20
2018-07-23T10:41:52.494Z,27.80
2018-07-23T10:44:55.725Z,27.80
2018-07-23T10:47:58.785Z,28.00
2018-07-23T10:51:01.890Z,28.30
2018-07-23T10:54:04.892Z,28.30
2018-07-23T10:57:07.974Z,28.00
2018-07-23T11:00:11.049Z,28.10
2018-07-23T11:03:14.106Z,28.30
2018-07-23T11:06:17.161Z,28.20
2018-07-23T11:09:20.216Z,28.00
2018-07-23T11:12:23.284Z,27.90
2018-07-23T11:15:26.341Z,27.60
2018-07-23T11:18:29.413Z,27.40
2018-07-23T11:21:32.509Z,27.50
2018-07-23T11:24:35.585Z,27.50
2018-07-23T11:27:38.616Z,27.40
2018-07-23T11:33:44.653Z,27.00
2018-07-23T11:36:47.709Z,27.00
2018-07-23T11:39:50.777Z,27.00
2018-07-23T11:42:54.103Z,27.00
2018-07-23T11:45:57.189Z,26.90
2018-07-23T11:52:14.362Z,26.70
2018-07-23T11:55:12.990Z,26.60
2018-07-23T12:01:19.089Z,26.80
2018-07-23T12:04:22.198Z,26.80
2018-07-23T12:07:31.261Z,26.80
2018-07-23T12:10:34.317Z,26.80
2018-07-23T12:13:37.388Z,26.80
2018-07-23T12:16:40.481Z,26.80
2018-07-23T12:22:46.499Z,26.70
2018-07-23T12:25:49.576Z,26.60
2018-07-23T12:28:52.654Z,26.50
2018-07-23T12:31:55.745Z,26.50
2018-07-23T12:34:58.855Z,26.50
2018-07-23T12:38:01.933Z,26.50
2018-07-23T12:41:05.155Z,26.50
2018-07-23T12:44:08.525Z,26.60
2018-07-23T12:47:11.773Z,26.70
2018-07-23T12:50:14.775Z,26.60
2018-07-23T12:53:17.833Z,26.60
2018-07-23T12:56:20.889Z,26.70
2018-07-23T12:59:23.949Z,26.70
2018-07-23T13:02:27.026Z,26.80
2018-07-23T13:05:32.438Z,26.80
2018-07-23T13:08:35.544Z,26.80
2018-07-23T13:11:38.632Z,26.80
2018-07-23T13:14:41.668Z,26.70
2018-07-23T13:17:44.729Z,26.70
2018-07-23T13:20:47.805Z,26.70
2018-07-23T13:23:50.844Z,26.80
2018-07-23T13:29:56.746Z,27.00
2018-07-23T13:32:59.817Z,27.00
2018-07-23T13:36:02.873Z,27.10
2018-07-23T13:39:08.513Z,27.00
2018-07-23T13:42:11.593Z,26.90
2018-07-23T13:45:14.685Z,26.80
2018-07-23T13:48:17.996Z,26.80
2018-07-23T13:51:21.048Z,26.90
2018-07-23T13:54:24.173Z,26.90
2018-07-23T13:57:27.442Z,27.00
2018-07-23T14:00:30.833Z,27.10
2018-07-23T14:03:34.038Z,27.10
2018-07-23T14:06:37.319Z,27.20
2018-07-23T14:09:40.502Z,27.40
2018-07-23T14:12:43.725Z,27.50
2018-07-23T14:15:46.920Z,27.60
2018-07-23T14:18:50.173Z,27.50
2018-07-23T14:24:56.408Z,27.40
2018-07-23T14:27:59.754Z,27.20
2018-07-23T14:34:06.187Z,27.10
2018-07-23T14:37:09.396Z,27.20
2018-07-23T14:40:16.789Z,27.20
2018-07-23T14:43:20.314Z,27.20
2018-07-23T14:46:23.505Z,27.30
2018-07-23T14:49:26.685Z,27.20
2018-07-23T14:52:29.929Z,27.20
2018-07-23T14:55:33.106Z,27.10
2018-07-23T14:58:36.258Z,27.10
2018-07-23T15:01:39.389Z,27.20
2018-07-23T15:07:45.521Z,27.30
2018-07-23T15:10:48.714Z,27.30
2018-07-23T15:13:51.944Z,27.20
2018-07-23T15:16:55.126Z,27.30
2018-07-23T15:19:58.339Z,27.30
2018-07-23T15:26:04.502Z,27.30
2018-07-23T15:29:07.851Z,27.30
2018-07-23T15:32:10.967Z,27.30
2018-07-23T15:35:14.110Z,27.40
2018-07-23T15:38:17.297Z,27.50
2018-07-23T15:41:20.457Z,27.40
2018-07-23T15:44:23.754Z,27.30
2018-07-23T15:47:26.845Z,27.30
2018-07-23T15:50:30.094Z,27.30
2018-07-23T15:53:33.396Z,27.30
2018-07-23T15:56:36.677Z,27.30
2018-07-23T15:59:39.894Z,27.30
2018-07-23T16:02:43.069Z,27.30
2018-07-23T16:05:46.322Z,27.30
2018-07-23T16:08:49.549Z,27.20
2018-07-23T16:14:55.662Z,27.10
2018-07-23T16:17:58.878Z,27.00
2018-07-23T16:21:02.073Z,27.00
2018-07-23T16:24:05.209Z,27.00
2018-07-23T16:30:11.214Z,27.00
2018-07-23T16:33:14.266Z,26.80
2018-07-23T16:36:17.312Z,26.80
2018-07-23T16:39:20.392Z,26.90
2018-07-23T16:42:23.458Z,26.80
2018-07-23T16:45:26.546Z,26.90
2018-07-23T16:51:32.598Z,26.80
2018-07-23T16:54:35.619Z,26.80
2018-07-23T17:00:41.536Z,26.70
2018-07-23T17:03:44.592Z,26.60
2018-07-23T17:06:47.674Z,26.50
2018-07-23T17:12:53.793Z,26.40
2018-07-23T17:15:56.868Z,26.30
2018-07-23T17:18:59.965Z,26.20
2018-07-23T17:22:03.061Z,26.20
2018-07-23T17:25:06.316Z,26.20
2018-07-23T17:31:12.337Z,26.10
2018-07-23T17:34:16.261Z,26.00
2018-07-23T17:37:20.342Z,25.90
2018-07-23T17:40:23.848Z,25.90
2018-07-23T17:43:27.366Z,25.80
2018-07-23T17:46:30.800Z,25.80
2018-07-23T17:49:33.987Z,25.70
2018-07-23T17:52:37.063Z,25.60
2018-07-23T17:55:40.125Z,25.60
2018-07-23T17:58:43.200Z,25.60
2018-07-23T18:01:48.341Z,25.60
2018-07-23T18:04:51.436Z,25.50
2018-07-23T18:07:54.492Z,25.50
2018-07-23T18:10:57.583Z,25.40
2018-07-23T18:14:00.645Z,25.30
2018-07-23T18:17:03.720Z,25.30
2018-07-23T18:20:06.806Z,25.20
2018-07-23T18:23:09.880Z,25.10
2018-07-23T18:26:12.960Z,25.10
2018-07-23T18:29:16.030Z,25.00
2018-07-23T18:32:19.123Z,25.00
2018-07-23T18:35:22.253Z,24.90
2018-07-23T18:38:25.334Z,24.80
2018-07-23T18:41:28.357Z,24.80
2018-07-23T18:44:31.413Z,24.70
2018-07-23T18:53:40.216Z,24.50
2018-07-23T18:56:48.129Z,24.30
2018-07-23T18:59:51.194Z,24.20
2018-07-23T19:02:54.220Z,24.10
2018-07-23T19:05:57.284Z,24.00
2018-07-23T19:09:00.341Z,23.90
2018-07-23T19:15:06.690Z,23.80
2018-07-23T19:18:09.991Z,23.70
2018-07-23T19:21:13.178Z,23.60
2018-07-23T19:24:16.299Z,23.60
2018-07-23T19:27:19.528Z,23.50
2018-07-23T19:30:22.754Z,23.50
2018-07-23T19:33:25.974Z,23.40
2018-07-23T19:36:29.385Z,23.30
2018-07-23T19:39:32.543Z,23.20
2018-07-23T19:42:35.753Z,23.20
2018-07-23T19:45:38.957Z,23.10
2018-07-23T19:48:42.174Z,23.00
2018-07-23T19:54:48.353Z,22.70
2018-07-23T20:00:54.521Z,22.80
2018-07-23T20:03:57.690Z,22.70
2018-07-23T20:07:00.950Z,22.70
2018-07-23T20:10:04.726Z,22.70
2018-07-23T20:13:08.191Z,22.60
2018-07-23T20:16:11.422Z,22.60
2018-07-23T20:19:14.571Z,22.60
2018-07-23T20:22:17.777Z,22.50
2018-07-23T20:25:21.002Z,22.40
2018-07-23T20:28:30.425Z,22.30
2018-07-23T20:31:33.622Z,22.20
2018-07-23T20:34:36.895Z,22.10
2018-07-23T20:37:40.141Z,22.10
2018-07-23T20:43:46.245Z,22.00
2018-07-23T20:46:49.433Z,22.00
2018-07-23T20:49:52.781Z,22.00
2018-07-23T20:52:56.074Z,22.00
2018-07-23T20:55:59.321Z,22.00
2018-07-23T20:59:02.590Z,22.00
2018-07-23T21:05:08.758Z,22.00
2018-07-23T21:08:12.050Z,21.90
2018-07-23T21:11:15.256Z,21.90
2018-07-23T21:14:18.457Z,21.80
2018-07-23T21:20:24.693Z,21.80
2018-07-23T21:23:27.865Z,21.70
2018-07-23T21:26:31.092Z,21.60
2018-07-23T21:29:34.385Z,21.60
2018-07-23T21:32:37.569Z,21.50
2018-07-23T21:35:40.774Z,21.50
2018-07-23T21:38:44.066Z,21.40
2018-07-23T21:41:47.297Z,21.40
2018-07-23T21:47:53.625Z,21.40
2018-07-23T21:50:56.814Z,21.40
2018-07-23T21:54:00.078Z,21.40
2018-07-23T21:57:03.238Z,21.40
2018-07-23T22:00:11.542Z,21.50
2018-07-23T22:03:14.858Z,21.50
2018-07-23T22:06:22.690Z,21.60
2018-07-23T22:12:28.977Z,21.50
2018-07-23T22:18:35.342Z,21.50
2018-07-23T22:21:38.591Z,21.50
2018-07-23T22:24:41.919Z,21.50
2018-07-23T22:27:45.042Z,21.60
2018-07-23T22:36:54.027Z,21.50
2018-07-23T22:39:57.269Z,21.50
2018-07-23T22:43:00.410Z,21.50
2018-07-23T22:46:03.678Z,21.40
2018-07-23T22:49:06.958Z,21.40
2018-07-23T22:52:10.118Z,21.30
2018-07-23T22:55:13.398Z,21.40
2018-07-23T22:58:16.710Z,21.30
2018-07-23T23:01:20.294Z,21.30
2018-07-23T23:04:23.508Z,21.40
2018-07-23T23:07:26.757Z,21.30
2018-07-23T23:10:29.909Z,21.30
2018-07-23T23:13:33.129Z,21.30
2018-07-23T23:16:36.330Z,21.30
2018-07-23T23:19:40.170Z,21.20
2018-07-23T23:25:46.494Z,21.20
2018-07-23T23:28:49.669Z,21.20
2018-07-23T23:31:52.881Z,21.10
2018-07-23T23:34:55.983Z,21.10
2018-07-23T23:37:59.069Z,21.00
2018-07-23T23:41:02.131Z,20.80
2018-07-23T23:44:05.236Z,20.70
2018-07-23T23:47:08.298Z,20.60
2018-07-23T23:53:14.205Z,20.50
2018-07-23T23:56:17.310Z,20.50
2018-07-23T23:59:20.373Z,20.40
